sensor_id;sensor_type;location;lat;lon;timestamp;temperature;humidity
22071;DHT22;11200;51.488;6.668;2023-03-01T04:46:42;-1.40;99.90
22071;DHT22;11200;51.488;6.668;2023-03-01T04:49:07;-1.50;99.90
22071;DHT22;11200;51.488;6.668;2023-03-01T04:51:33;-1.50;99.90
22071;DHT22;11200;51.488;6.668;2023-03-01T04:53:59;-1.50;99.90
22071;DHT22;11200;51.488;6.668;2023-03-01T04:56:25;-1.50;99.90
22071;DHT22;11200;51.488;6.668;2023-03-01T04:58:53;-1.50;99.90
22071;DHT22;11200;51.488;6.668;2023-03-01T05:01:20;-1.50;99.90
22071;DHT22;11200;51.488;6.668;2023-03-01T05:03:50;-1.50;99.90
22071;DHT22;11200;51.488;6.668;2023-03-01T05:06:18;-1.50;99.90
22071;DHT22;11200;51.488;6.668;2023-03-01T05:08:45;-1.60;99.90
22071;DHT22;11200;51.488;6.668;2023-03-01T05:11:11;-1.60;99.90
22071;DHT22;11200;51.488;6.668;2023-03-01T05:13:40;-1.60;99.90
22071;DHT22;11200;51.488;6.668;2023-03-01T05:16:06;-1.60;99.90
22071;DHT22;11200;51.488;6.668;2023-03-01T05:18:37;-1.60;99.90
22071;DHT22;11200;51.488;6.668;2023-03-01T05:21:12;-1.60;99.90
22071;DHT22;11200;51.488;6.668;2023-03-01T05:23:40;-1.60;99.90
22071;DHT22;11200;51.488;6.668;2023-03-01T05:26:09;-1.60;99.90
22071;DHT22;11200;51.488;6.668;2023-03-01T05:28:35;-1.40;99.90
22071;DHT22;11200;51.488;6.668;2023-03-01T05:31:00;-1.70;99.90
22071;DHT22;11200;51.488;6.668;2023-03-01T05:33:27;-1.70;99.90
22071;DHT22;11200;51.488;6.668;2023-03-01T05:35:59;-1.70;99.90
22071;DHT22;11200;51.488;6.668;2023-03-01T05:38:25;-1.70;99.90
22071;DHT22;11200;51.488;6.668;2023-03-01T05:40:50;-1.70;99.90
22071;DHT22;11200;51.488;6.668;2023-03-01T05:43:16;-1.70;99.90
22071;DHT22;11200;51.488;6.668;2023-03-01T05:45:43;-1.70;99.90
22071;DHT22;11200;51.488;6.668;2023-03-01T05:48:10;-1.70;99.90
22071;DHT22;11200;51.488;6.668;2023-03-01T05:50:39;-1.70;99.90
22071;DHT22;11200;51.488;6.668;2023-03-01T05:53:14;-1.80;99.90
22071;DHT22;11200;51.488;6.668;2023-03-01T05:55:41;-1.80;99.90
22071;DHT22;11200;51.488;6.668;2023-03-01T05:58:12;-1.80;99.90
22071;DHT22;11200;51.488;6.668;2023-03-01T06:00:39;-1.80;99.90
22071;DHT22;11200;51.488;6.668;2023-03-01T06:03:05;-1.80;99.90
22071;DHT22;11200;51.488;6.668;2023-03-01T06:05:30;-1.80;99.90
22071;DHT22;11200;51.488;6.668;2023-03-01T06:07:59;-1.90;99.90
22071;DHT22;11200;51.488;6.668;2023-03-01T06:10:25;-1.80;99.90
22071;DHT22;11200;51.488;6.668;2023-03-01T06:12:50;-1.80;99.90
22071;DHT22;11200;51.488;6.668;2023-03-01T06:15:16;-1.80;99.90
22071;DHT22;11200;51.488;6.668;2023-03-01T06:17:44;-1.80;99.90
22071;DHT22;11200;51.488;6.668;2023-03-01T06:20:14;-1.80;99.90
22071;DHT22;11200;51.488;6.668;2023-03-01T06:22:40;-1.80;99.90
22071;DHT22;11200;51.488;6.668;2023-03-01T06:25:07;-1.90;99.90
22071;DHT22;11200;51.488;6.668;2023-03-01T06:27:33;-1.90;99.90
22071;DHT22;11200;51.488;6.668;2023-03-01T06:29:59;-1.80;99.90
22071;DHT22;11200;51.488;6.668;2023-03-01T06:32:25;-1.90;99.90
22071;DHT22;11200;51.488;6.668;2023-03-01T06:34:50;-1.80;99.90
22071;DHT22;11200;51.488;6.668;2023-03-01T06:37:16;-1.80;99.90
22071;DHT22;11200;51.488;6.668;2023-03-01T06:39:42;-1.90;99.90
22071;DHT22;11200;51.488;6.668;2023-03-01T06:42:08;-1.90;99.90
22071;DHT22;11200;51.488;6.668;2023-03-01T06:44:36;-1.90;99.90
22071;DHT22;11200;51.488;6.668;2023-03-01T06:47:02;-1.90;99.90
22071;DHT22;11200;51.488;6.668;2023-03-01T06:49:28;-1.90;99.90
22071;DHT22;11200;51.488;6.668;2023-03-01T06:51:54;-1.90;99.90
22071;DHT22;11200;51.488;6.668;2023-03-01T06:54:20;-1.90;99.90
22071;DHT22;11200;51.488;6.668;2023-03-01T06:56:48;-1.90;99.90
22071;DHT22;11200;51.488;6.668;2023-03-01T06:59:13;-1.80;99.90
22071;DHT22;11200;51.488;6.668;2023-03-01T07:01:39;-1.90;99.90
22071;DHT22;11200;51.488;6.668;2023-03-01T07:04:04;-1.90;99.90
22071;DHT22;11200;51.488;6.668;2023-03-01T07:06:30;-1.80;99.90
22071;DHT22;11200;51.488;6.668;2023-03-01T07:08:56;-1.90;99.90
22071;DHT22;11200;51.488;6.668;2023-03-01T07:11:21;-1.90;99.90
22071;DHT22;11200;51.488;6.668;2023-03-01T07:13:48;-1.80;99.90
22071;DHT22;11200;51.488;6.668;2023-03-01T07:16:13;-1.80;99.90
22071;DHT22;11200;51.488;6.668;2023-03-01T07:18:40;-1.80;99.90
22071;DHT22;11200;51.488;6.668;2023-03-01T07:21:11;-1.90;99.90
22071;DHT22;11200;51.488;6.668;2023-03-01T07:23:37;-1.80;99.90
22071;DHT22;11200;51.488;6.668;2023-03-01T07:26:03;-1.80;99.90
22071;DHT22;11200;51.488;6.668;2023-03-01T07:28:28;-1.80;99.90
22071;DHT22;11200;51.488;6.668;2023-03-01T07:30:54;-1.80;99.90
22071;DHT22;11200;51.488;6.668;2023-03-01T07:33:21;-1.60;99.90
22071;DHT22;11200;51.488;6.668;2023-03-01T07:35:46;-1.70;99.90
22071;DHT22;11200;51.488;6.668;2023-03-01T07:38:12;-1.70;99.90
22071;DHT22;11200;51.488;6.668;2023-03-01T07:40:37;-1.70;99.90
22071;DHT22;11200;51.488;6.668;2023-03-01T07:43:03;-1.60;99.90
22071;DHT22;11200;51.488;6.668;2023-03-01T07:45:29;-0.80;99.90
22071;DHT22;11200;51.488;6.668;2023-03-01T07:47:55;-1.60;99.90
22071;DHT22;11200;51.488;6.668;2023-03-01T07:50:22;-1.60;99.90
22071;DHT22;11200;51.488;6.668;2023-03-01T07:52:48;-1.50;99.90
22071;DHT22;11200;51.488;6.668;2023-03-01T07:55:15;-1.50;99.90
22071;DHT22;11200;51.488;6.668;2023-03-01T07:57:41;-1.50;99.90
22071;DHT22;11200;51.488;6.668;2023-03-01T08:00:09;-1.40;99.90
22071;DHT22;11200;51.488;6.668;2023-03-01T08:02:35;-1.40;99.90
22071;DHT22;11200;51.488;6.668;2023-03-01T08:05:01;-1.40;99.90
22071;DHT22;11200;51.488;6.668;2023-03-01T08:07:26;-1.30;99.90
22071;DHT22;11200;51.488;6.668;2023-03-01T08:09:52;-1.30;99.90
22071;DHT22;11200;51.488;6.668;2023-03-01T08:12:18;-1.30;99.90
22071;DHT22;11200;51.488;6.668;2023-03-01T08:14:43;-1.30;99.90
22071;DHT22;11200;51.488;6.668;2023-03-01T08:17:09;-1.20;99.90
22071;DHT22;11200;51.488;6.668;2023-03-01T08:19:35;-1.20;99.90
22071;DHT22;11200;51.488;6.668;2023-03-01T08:22:03;-1.10;99.90
22071;DHT22;11200;51.488;6.668;2023-03-01T08:24:29;-1.10;99.90
22071;DHT22;11200;51.488;6.668;2023-03-01T08:26:55;-1.00;99.90
22071;DHT22;11200;51.488;6.668;2023-03-01T08:29:21;-1.00;99.90
22071;DHT22;11200;51.488;6.668;2023-03-01T08:31:47;-1.00;99.90
22071;DHT22;11200;51.488;6.668;2023-03-01T08:34:15;-0.90;99.90
22071;DHT22;11200;51.488;6.668;2023-03-01T08:36:44;-0.90;99.90
22071;DHT22;11200;51.488;6.668;2023-03-01T08:39:12;-0.80;99.90
22071;DHT22;11200;51.488;6.668;2023-03-01T08:41:38;-0.70;99.90
22071;DHT22;11200;51.488;6.668;2023-03-01T08:44:04;-0.40;99.90
22071;DHT22;11200;51.488;6.668;2023-03-01T08:46:35;-0.10;99.90
22071;DHT22;11200;51.488;6.668;2023-03-01T08:49:08;0.30;99.90
22071;DHT22;11200;51.488;6.668;2023-03-01T08:51:35;0.70;99.90
22071;DHT22;11200;51.488;6.668;2023-03-01T08:54:07;1.10;99.90
22071;DHT22;11200;51.488;6.668;2023-03-01T08:56:35;1.60;99.90
22071;DHT22;11200;51.488;6.668;2023-03-01T08:59:00;2.10;99.90
22071;DHT22;11200;51.488;6.668;2023-03-01T09:01:26;2.50;99.90
22071;DHT22;11200;51.488;6.668;2023-03-01T09:03:52;2.90;99.90
22071;DHT22;11200;51.488;6.668;2023-03-01T09:06:18;3.30;99.90
22071;DHT22;11200;51.488;6.668;2023-03-01T09:08:47;3.80;99.90
22071;DHT22;11200;51.488;6.668;2023-03-01T09:11:20;3.90;99.90
22071;DHT22;11200;51.488;6.668;2023-03-01T09:13:47;4.50;99.90
22071;DHT22;11200;51.488;6.668;2023-03-01T09:16:14;4.90;99.90
22071;DHT22;11200;51.488;6.668;2023-03-01T09:18:40;5.10;99.90
22071;DHT22;11200;51.488;6.668;2023-03-01T09:21:12;5.50;99.90
22071;DHT22;11200;51.488;6.668;2023-03-01T09:23:41;5.90;99.90
22071;DHT22;11200;51.488;6.668;2023-03-01T09:26:08;6.20;99.90
22071;DHT22;11200;51.488;6.668;2023-03-01T09:28:35;6.50;99.90
22071;DHT22;11200;51.488;6.668;2023-03-01T09:31:02;6.70;99.90
22071;DHT22;11200;51.488;6.668;2023-03-01T09:33:29;7.20;99.90
22071;DHT22;11200;51.488;6.668;2023-03-01T09:35:58;7.80;99.90
22071;DHT22;11200;51.488;6.668;2023-03-01T09:38:24;7.70;99.90
22071;DHT22;11200;51.488;6.668;2023-03-01T09:40:50;8.00;99.90
22071;DHT22;11200;51.488;6.668;2023-03-01T09:46:10;8.50;99.90
22071;DHT22;11200;51.488;6.668;2023-03-01T09:48:46;8.70;99.90
22071;DHT22;11200;51.488;6.668;2023-03-01T09:51:23;9.00;99.90
22071;DHT22;11200;51.488;6.668;2023-03-01T09:53:50;9.30;99.90
22071;DHT22;11200;51.488;6.668;2023-03-01T09:56:46;9.50;99.90
22071;DHT22;11200;51.488;6.668;2023-03-01T10:04:47;10.20;99.90
22071;DHT22;11200;51.488;6.668;2023-03-01T10:07:39;10.50;99.90
22071;DHT22;11200;51.488;6.668;2023-03-01T10:10:22;10.70;99.90
22071;DHT22;11200;51.488;6.668;2023-03-01T10:12:49;10.90;99.90
22071;DHT22;11200;51.488;6.668;2023-03-01T10:15:25;11.30;99.90
22071;DHT22;11200;51.488;6.668;2023-03-01T10:18:04;11.40;99.90
22071;DHT22;11200;51.488;6.668;2023-03-01T10:20:56;11.60;99.90
22071;DHT22;11200;51.488;6.668;2023-03-01T10:23:24;11.80;99.90
22071;DHT22;11200;51.488;6.668;2023-03-01T10:28:54;12.40;99.90
22071;DHT22;11200;51.488;6.668;2023-03-01T10:31:27;12.70;99.90
22071;DHT22;11200;51.488;6.668;2023-03-01T10:34:07;12.90;99.90
22071;DHT22;11200;51.488;6.668;2023-03-01T10:36:33;13.10;99.90
22071;DHT22;11200;51.488;6.668;2023-03-01T10:39:05;13.30;99.90
22071;DHT22;11200;51.488;6.668;2023-03-01T10:41:54;13.50;99.90
22071;DHT22;11200;51.488;6.668;2023-03-01T10:44:44;13.70;99.90
22071;DHT22;11200;51.488;6.668;2023-03-01T10:47:19;14.00;99.90
22071;DHT22;11200;51.488;6.668;2023-03-01T10:49:56;14.20;99.90
22071;DHT22;11200;51.488;6.668;2023-03-01T10:52:25;14.30;99.90
22071;DHT22;11200;51.488;6.668;2023-03-01T10:54:57;14.50;99.90
22071;DHT22;11200;51.488;6.668;2023-03-01T10:57:41;14.70;99.90
22071;DHT22;11200;51.488;6.668;2023-03-01T11:00:22;14.90;99.90
22071;DHT22;11200;51.488;6.668;2023-03-01T11:03:11;15.00;99.90
22071;DHT22;11200;51.488;6.668;2023-03-01T11:05:36;15.20;99.90
22071;DHT22;11200;51.488;6.668;2023-03-01T11:08:02;15.40;99.90
22071;DHT22;11200;51.488;6.668;2023-03-01T11:10:33;15.50;99.90
22071;DHT22;11200;51.488;6.668;2023-03-01T11:13:17;15.60;99.90
22071;DHT22;11200;51.488;6.668;2023-03-01T11:15:58;15.70;99.90
22071;DHT22;11200;51.488;6.668;2023-03-01T11:18:24;15.80;99.90
22071;DHT22;11200;51.488;6.668;2023-03-01T11:20:53;15.80;99.90
22071;DHT22;11200;51.488;6.668;2023-03-01T11:23:20;15.90;99.90
22071;DHT22;11200;51.488;6.668;2023-03-01T11:26:07;15.90;99.90
22071;DHT22;11200;51.488;6.668;2023-03-01T11:28:37;16.00;99.90
22071;DHT22;11200;51.488;6.668;2023-03-01T11:31:06;15.90;99.90
22071;DHT22;11200;51.488;6.668;2023-03-01T11:34:10;15.90;99.90
22071;DHT22;11200;51.488;6.668;2023-03-01T11:36:53;15.90;99.90
22071;DHT22;11200;51.488;6.668;2023-03-01T11:39:39;15.80;99.90
22071;DHT22;11200;51.488;6.668;2023-03-01T11:42:24;15.70;99.90
22071;DHT22;11200;51.488;6.668;2023-03-01T11:44:55;15.60;99.90
22071;DHT22;11200;51.488;6.668;2023-03-01T11:47:46;15.60;99.90
22071;DHT22;11200;51.488;6.668;2023-03-01T11:50:37;15.60;99.90
22071;DHT22;11200;51.488;6.668;2023-03-01T11:59:34;15.30;99.90
22071;DHT22;11200;51.488;6.668;2023-03-01T12:05:25;15.20;99.90
22071;DHT22;11200;51.488;6.668;2023-03-01T12:08:15;15.00;99.90
22071;DHT22;11200;51.488;6.668;2023-03-01T12:10:44;15.10;99.90
22071;DHT22;11200;51.488;6.668;2023-03-01T12:19:31;14.90;99.90
22071;DHT22;11200;51.488;6.668;2023-03-01T12:28:19;14.80;99.90
22071;DHT22;11200;51.488;6.668;2023-03-01T12:31:00;14.70;99.90
22071;DHT22;11200;51.488;6.668;2023-03-01T12:39:04;14.70;99.90
22071;DHT22;11200;51.488;6.668;2023-03-01T12:49:56;14.60;99.90
22071;DHT22;11200;51.488;6.668;2023-03-01T12:52:48;14.60;99.90
22071;DHT22;11200;51.488;6.668;2023-03-01T12:55:35;14.50;99.90
22071;DHT22;11200;51.488;6.668;2023-03-01T12:58:23;14.60;99.90
22071;DHT22;11200;51.488;6.668;2023-03-01T13:01:16;14.50;99.90
22071;DHT22;11200;51.488;6.668;2023-03-01T13:04:17;14.40;99.90
22071;DHT22;11200;51.488;6.668;2023-03-01T13:07:16;14.30;99.90
22071;DHT22;11200;51.488;6.668;2023-03-01T13:10:00;14.20;99.90
22071;DHT22;11200;51.488;6.668;2023-03-01T13:20:51;14.20;99.90
22071;DHT22;11200;51.488;6.668;2023-03-01T13:33:58;13.70;99.90
22071;DHT22;11200;51.488;6.668;2023-03-01T13:38:56;13.50;99.90
22071;DHT22;11200;51.488;6.668;2023-03-01T13:44:30;13.40;99.90
22071;DHT22;11200;51.488;6.668;2023-03-01T13:47:14;13.30;99.90
22071;DHT22;11200;51.488;6.668;2023-03-01T13:49:53;13.20;99.90
22071;DHT22;11200;51.488;6.668;2023-03-01T13:55:16;13.00;99.90
22071;DHT22;11200;51.488;6.668;2023-03-01T13:57:46;13.00;99.90
22071;DHT22;11200;51.488;6.668;2023-03-01T14:00:33;12.70;99.90
22071;DHT22;11200;51.488;6.668;2023-03-01T14:03:16;12.60;99.90
22071;DHT22;11200;51.488;6.668;2023-03-01T14:06:07;12.50;99.90
22071;DHT22;11200;51.488;6.668;2023-03-01T14:08:36;12.40;99.90
22071;DHT22;11200;51.488;6.668;2023-03-01T14:11:50;12.30;99.90
22071;DHT22;11200;51.488;6.668;2023-03-01T14:20:08;11.70;99.90
22071;DHT22;11200;51.488;6.668;2023-03-01T14:22:36;11.80;99.90
22071;DHT22;11200;51.488;6.668;2023-03-01T14:25:25;11.70;99.90
22071;DHT22;11200;51.488;6.668;2023-03-01T14:30:37;11.50;99.90
22071;DHT22;11200;51.488;6.668;2023-03-01T14:33:06;11.40;99.90
22071;DHT22;11200;51.488;6.668;2023-03-01T14:35:36;11.30;99.90
22071;DHT22;11200;51.488;6.668;2023-03-01T14:38:03;11.20;99.90
22071;DHT22;11200;51.488;6.668;2023-03-01T14:40:36;11.20;99.90
22071;DHT22;11200;51.488;6.668;2023-03-01T14:43:10;11.60;99.90
22071;DHT22;11200;51.488;6.668;2023-03-01T14:45:36;11.10;99.90
22071;DHT22;11200;51.488;6.668;2023-03-01T14:48:04;10.90;99.90
22071;DHT22;11200;51.488;6.668;2023-03-01T14:50:36;10.80;99.90
22071;DHT22;11200;51.488;6.668;2023-03-01T14:53:06;10.80;99.90
22071;DHT22;11200;51.488;6.668;2023-03-01T14:55:42;10.70;99.90
22071;DHT22;11200;51.488;6.668;2023-03-01T14:58:13;10.70;99.90
22071;DHT22;11200;51.488;6.668;2023-03-01T15:00:48;10.60;99.90
22071;DHT22;11200;51.488;6.668;2023-03-01T15:03:41;10.50;99.90
22071;DHT22;11200;51.488;6.668;2023-03-01T15:06:07;10.40;99.90
22071;DHT22;11200;51.488;6.668;2023-03-01T15:08:34;10.40;99.90
22071;DHT22;11200;51.488;6.668;2023-03-01T15:13:50;10.30;99.90
22071;DHT22;11200;51.488;6.668;2023-03-01T15:16:19;10.10;99.90
22071;DHT22;11200;51.488;6.668;2023-03-01T15:18:56;10.10;99.90
22071;DHT22;11200;51.488;6.668;2023-03-01T15:21:24;10.10;99.90
22071;DHT22;11200;51.488;6.668;2023-03-01T15:23:52;10.00;99.90
22071;DHT22;11200;51.488;6.668;2023-03-01T15:26:25;10.00;99.90
22071;DHT22;11200;51.488;6.668;2023-03-01T15:28:53;9.90;99.90
22071;DHT22;11200;51.488;6.668;2023-03-01T15:31:29;9.80;99.90
22071;DHT22;11200;51.488;6.668;2023-03-01T15:36:54;9.70;99.90
22071;DHT22;11200;51.488;6.668;2023-03-01T15:42:13;9.50;99.90
22071;DHT22;11200;51.488;6.668;2023-03-01T15:44:40;9.40;99.90
22071;DHT22;11200;51.488;6.668;2023-03-01T15:47:28;9.40;99.90
22071;DHT22;11200;51.488;6.668;2023-03-01T15:49:55;9.30;99.90
22071;DHT22;11200;51.488;6.668;2023-03-01T15:52:26;9.50;99.90
22071;DHT22;11200;51.488;6.668;2023-03-01T15:55:04;9.20;99.90
22071;DHT22;11200;51.488;6.668;2023-03-01T15:57:30;9.20;99.90
22071;DHT22;11200;51.488;6.668;2023-03-01T15:59:56;9.10;99.90
22071;DHT22;11200;51.488;6.668;2023-03-01T16:02:23;9.00;99.90
22071;DHT22;11200;51.488;6.668;2023-03-01T16:04:50;8.90;99.90
22071;DHT22;11200;51.488;6.668;2023-03-01T16:07:16;8.90;99.90
22071;DHT22;11200;51.488;6.668;2023-03-01T16:09:42;8.80;99.90
22071;DHT22;11200;51.488;6.668;2023-03-01T16:12:14;8.80;99.90
22071;DHT22;11200;51.488;6.668;2023-03-01T16:14:40;8.80;99.90
22071;DHT22;11200;51.488;6.668;2023-03-01T16:17:06;8.70;99.90
22071;DHT22;11200;51.488;6.668;2023-03-01T16:19:35;8.60;99.90
22071;DHT22;11200;51.488;6.668;2023-03-01T16:22:01;8.80;99.90
22071;DHT22;11200;51.488;6.668;2023-03-01T16:24:26;8.70;99.90
22071;DHT22;11200;51.488;6.668;2023-03-01T16:26:52;8.50;99.90
22071;DHT22;11200;51.488;6.668;2023-03-01T16:29:17;8.50;99.90
22071;DHT22;11200;51.488;6.668;2023-03-01T16:31:43;8.40;99.90
22071;DHT22;11200;51.488;6.668;2023-03-01T16:34:09;8.30;99.90
22071;DHT22;11200;51.488;6.668;2023-03-01T16:36:35;8.40;99.90
22071;DHT22;11200;51.488;6.668;2023-03-01T16:39:02;8.50;99.90
22071;DHT22;11200;51.488;6.668;2023-03-01T16:41:28;8.10;99.90
22071;DHT22;11200;51.488;6.668;2023-03-01T16:43:54;8.00;99.90
22071;DHT22;11200;51.488;6.668;2023-03-01T16:46:22;8.00;99.90
22071;DHT22;11200;51.488;6.668;2023-03-01T16:48:49;7.90;99.90
22071;DHT22;11200;51.488;6.668;2023-03-01T16:51:15;7.90;99.90
22071;DHT22;11200;51.488;6.668;2023-03-01T16:53:41;8.80;99.90
22071;DHT22;11200;51.488;6.668;2023-03-01T16:56:08;7.70;99.90
22071;DHT22;11200;51.488;6.668;2023-03-01T16:58:36;7.70;99.90
22071;DHT22;11200;51.488;6.668;2023-03-01T17:01:10;7.90;99.90
22071;DHT22;11200;51.488;6.668;2023-03-01T17:03:37;7.60;99.90
22071;DHT22;11200;51.488;6.668;2023-03-01T17:06:06;7.40;99.90
22071;DHT22;11200;51.488;6.668;2023-03-01T17:08:32;7.40;99.90
22071;DHT22;11200;51.488;6.668;2023-03-01T17:11:03;7.60;99.90
22071;DHT22;11200;51.488;6.668;2023-03-01T17:13:29;7.30;99.90
22071;DHT22;11200;51.488;6.668;2023-03-01T17:15:54;7.40;99.90
22071;DHT22;11200;51.488;6.668;2023-03-01T17:18:20;7.10;99.90
22071;DHT22;11200;51.488;6.668;2023-03-01T17:20:45;7.40;99.90
22071;DHT22;11200;51.488;6.668;2023-03-01T17:23:11;7.00;99.90
22071;DHT22;11200;51.488;6.668;2023-03-01T17:25:44;6.90;99.90
22071;DHT22;11200;51.488;6.668;2023-03-01T17:28:11;6.90;99.90
22071;DHT22;11200;51.488;6.668;2023-03-01T17:30:37;6.90;99.90
22071;DHT22;11200;51.488;6.668;2023-03-01T17:33:02;7.20;99.90
22071;DHT22;11200;51.488;6.668;2023-03-01T17:35:28;7.30;99.90
22071;DHT22;11200;51.488;6.668;2023-03-01T17:37:53;6.50;99.90
22071;DHT22;11200;51.488;6.668;2023-03-01T17:40:19;6.60;99.90
22071;DHT22;11200;51.488;6.668;2023-03-01T17:42:45;6.40;99.90
22071;DHT22;11200;51.488;6.668;2023-03-01T17:45:11;6.90;99.90
22071;DHT22;11200;51.488;6.668;2023-03-01T17:47:37;6.30;99.90
22071;DHT22;11200;51.488;6.668;2023-03-01T17:50:02;6.50;99.90
22071;DHT22;11200;51.488;6.668;2023-03-01T17:52:30;6.30;99.90
22071;DHT22;11200;51.488;6.668;2023-03-01T17:54:55;6.50;99.90
22071;DHT22;11200;51.488;6.668;2023-03-01T17:57:21;6.20;99.90
22071;DHT22;11200;51.488;6.668;2023-03-01T17:59:47;6.10;99.90
22071;DHT22;11200;51.488;6.668;2023-03-01T18:02:12;6.10;99.90
22071;DHT22;11200;51.488;6.668;2023-03-01T18:04:38;6.00;99.90
22071;DHT22;11200;51.488;6.668;2023-03-01T18:07:03;5.90;99.90
22071;DHT22;11200;51.488;6.668;2023-03-01T18:09:29;5.90;99.90
22071;DHT22;11200;51.488;6.668;2023-03-01T18:11:55;5.80;99.90
22071;DHT22;11200;51.488;6.668;2023-03-01T18:14:21;5.80;99.90
22071;DHT22;11200;51.488;6.668;2023-03-01T18:16:47;5.70;99.90
22071;DHT22;11200;51.488;6.668;2023-03-01T18:19:12;6.20;99.90
22071;DHT22;11200;51.488;6.668;2023-03-01T18:21:38;5.70;99.90
22071;DHT22;11200;51.488;6.668;2023-03-01T18:24:04;5.60;99.90
22071;DHT22;11200;51.488;6.668;2023-03-01T18:26:30;5.60;99.90
22071;DHT22;11200;51.488;6.668;2023-03-01T18:28:58;5.50;99.90
22071;DHT22;11200;51.488;6.668;2023-03-01T18:31:35;5.50;99.90
22071;DHT22;11200;51.488;6.668;2023-03-01T18:34:01;5.60;99.90
22071;DHT22;11200;51.488;6.668;2023-03-01T18:36:30;5.60;99.90
22071;DHT22;11200;51.488;6.668;2023-03-01T18:38:56;5.30;99.90
22071;DHT22;11200;51.488;6.668;2023-03-01T18:41:23;6.00;99.90
22071;DHT22;11200;51.488;6.668;2023-03-01T18:43:49;5.30;99.90
22071;DHT22;11200;51.488;6.668;2023-03-01T18:46:15;5.00;99.90
22071;DHT22;11200;51.488;6.668;2023-03-01T18:48:41;5.10;99.90
22071;DHT22;11200;51.488;6.668;2023-03-01T18:51:19;5.10;99.90
22071;DHT22;11200;51.488;6.668;2023-03-01T18:53:45;5.20;99.90
22071;DHT22;11200;51.488;6.668;2023-03-01T18:56:11;5.10;99.90
22071;DHT22;11200;51.488;6.668;2023-03-01T18:58:37;5.50;99.90
22071;DHT22;11200;51.488;6.668;2023-03-01T19:01:04;5.70;99.90
22071;DHT22;11200;51.488;6.668;2023-03-01T19:03:33;4.70;99.90
22071;DHT22;11200;51.488;6.668;2023-03-01T19:05:59;4.80;99.90
22071;DHT22;11200;51.488;6.668;2023-03-01T19:08:28;4.70;99.90
22071;DHT22;11200;51.488;6.668;2023-03-01T19:10:59;4.60;99.90
22071;DHT22;11200;51.488;6.668;2023-03-01T19:13:25;4.70;99.90
22071;DHT22;11200;51.488;6.668;2023-03-01T19:15:52;4.70;99.90
22071;DHT22;11200;51.488;6.668;2023-03-01T19:18:26;4.60;99.90
22071;DHT22;11200;51.488;6.668;2023-03-01T19:20:59;4.60;99.90
22071;DHT22;11200;51.488;6.668;2023-03-01T19:23:26;4.50;99.90
22071;DHT22;11200;51.488;6.668;2023-03-01T19:25:58;4.40;99.90
22071;DHT22;11200;51.488;6.668;2023-03-01T19:28:23;4.40;99.90
22071;DHT22;11200;51.488;6.668;2023-03-01T19:30:49;4.40;99.90
22071;DHT22;11200;51.488;6.668;2023-03-01T19:33:15;4.20;99.90
22071;DHT22;11200;51.488;6.668;2023-03-01T19:35:40;4.30;99.90
22071;DHT22;11200;51.488;6.668;2023-03-01T19:38:06;4.30;99.90
22071;DHT22;11200;51.488;6.668;2023-03-01T19:40:32;4.10;99.90
22071;DHT22;11200;51.488;6.668;2023-03-01T19:42:58;4.10;99.90
22071;DHT22;11200;51.488;6.668;2023-03-01T19:45:23;4.20;99.90
22071;DHT22;11200;51.488;6.668;2023-03-01T19:47:49;4.70;99.90
22071;DHT22;11200;51.488;6.668;2023-03-01T19:50:16;4.00;99.90
22071;DHT22;11200;51.488;6.668;2023-03-01T19:52:42;4.10;99.90
22071;DHT22;11200;51.488;6.668;2023-03-01T19:55:08;4.00;99.90
22071;DHT22;11200;51.488;6.668;2023-03-01T19:57:34;4.00;99.90
22071;DHT22;11200;51.488;6.668;2023-03-01T20:00:00;3.90;99.90
22071;DHT22;11200;51.488;6.668;2023-03-01T20:02:26;4.00;99.90
22071;DHT22;11200;51.488;6.668;2023-03-01T20:04:52;4.20;99.90
22071;DHT22;11200;51.488;6.668;2023-03-01T20:07:17;3.70;99.90
22071;DHT22;11200;51.488;6.668;2023-03-01T20:09:43;4.00;99.90
22071;DHT22;11200;51.488;6.668;2023-03-01T20:12:10;3.70;99.90
22071;DHT22;11200;51.488;6.668;2023-03-01T20:14:36;3.80;99.90
22071;DHT22;11200;51.488;6.668;2023-03-01T20:17:01;3.70;99.90
22071;DHT22;11200;51.488;6.668;2023-03-01T20:19:27;3.60;99.90
22071;DHT22;11200;51.488;6.668;2023-03-01T20:21:53;3.70;99.90
22071;DHT22;11200;51.488;6.668;2023-03-01T20:24:18;3.60;99.90
22071;DHT22;11200;51.488;6.668;2023-03-01T20:26:44;3.70;99.90
22071;DHT22;11200;51.488;6.668;2023-03-01T20:29:09;3.50;99.90
22071;DHT22;11200;51.488;6.668;2023-03-01T20:31:36;3.50;99.90
22071;DHT22;11200;51.488;6.668;2023-03-01T20:34:04;3.60;99.90
22071;DHT22;11200;51.488;6.668;2023-03-01T20:36:29;3.40;99.90
22071;DHT22;11200;51.488;6.668;2023-03-01T20:38:55;3.50;99.90
22071;DHT22;11200;51.488;6.668;2023-03-01T20:41:21;4.10;99.90
22071;DHT22;11200;51.488;6.668;2023-03-01T20:43:50;3.50;99.90
22071;DHT22;11200;51.488;6.668;2023-03-01T20:46:21;3.50;99.90
22071;DHT22;11200;51.488;6.668;2023-03-01T20:48:48;3.40;99.90
22071;DHT22;11200;51.488;6.668;2023-03-01T20:51:18;3.40;99.90
22071;DHT22;11200;51.488;6.668;2023-03-01T20:53:44;3.30;99.90
22071;DHT22;11200;51.488;6.668;2023-03-01T20:56:12;3.40;99.90
22071;DHT22;11200;51.488;6.668;2023-03-01T20:58:38;3.30;99.90
22071;DHT22;11200;51.488;6.668;2023-03-01T21:01:05;3.30;99.90
22071;DHT22;11200;51.488;6.668;2023-03-01T21:03:31;3.40;99.90
22071;DHT22;11200;51.488;6.668;2023-03-01T21:05:58;3.30;99.90
22071;DHT22;11200;51.488;6.668;2023-03-01T21:08:24;3.30;99.90
22071;DHT22;11200;51.488;6.668;2023-03-01T21:10:51;3.20;99.90
22071;DHT22;11200;51.488;6.668;2023-03-01T21:13:17;3.30;99.90
22071;DHT22;11200;51.488;6.668;2023-03-01T21:15:55;3.30;99.90
22071;DHT22;11200;51.488;6.668;2023-03-01T21:18:21;3.20;99.90
22071;DHT22;11200;51.488;6.668;2023-03-01T21:20:47;3.10;99.90
22071;DHT22;11200;51.488;6.668;2023-03-01T21:23:13;3.30;99.90
22071;DHT22;11200;51.488;6.668;2023-03-01T21:25:38;3.00;99.90
22071;DHT22;11200;51.488;6.668;2023-03-01T21:28:04;3.10;99.90
22071;DHT22;11200;51.488;6.668;2023-03-01T21:30:29;3.20;99.90
22071;DHT22;11200;51.488;6.668;2023-03-01T21:32:55;3.10;99.90
22071;DHT22;11200;51.488;6.668;2023-03-01T21:35:21;3.00;99.90
22071;DHT22;11200;51.488;6.668;2023-03-01T21:37:47;3.00;99.90
22071;DHT22;11200;51.488;6.668;2023-03-01T21:40:13;3.00;99.90
22071;DHT22;11200;51.488;6.668;2023-03-01T21:42:39;3.00;99.90
22071;DHT22;11200;51.488;6.668;2023-03-01T21:45:05;3.10;99.90
22071;DHT22;11200;51.488;6.668;2023-03-01T21:47:31;2.90;99.90
22071;DHT22;11200;51.488;6.668;2023-03-01T21:49:57;2.90;99.90
22071;DHT22;11200;51.488;6.668;2023-03-01T21:52:23;3.00;99.90
22071;DHT22;11200;51.488;6.668;2023-03-01T21:54:52;2.90;99.90
22071;DHT22;11200;51.488;6.668;2023-03-01T21:57:19;2.80;99.90
22071;DHT22;11200;51.488;6.668;2023-03-01T21:59:45;2.90;99.90
22071;DHT22;11200;51.488;6.668;2023-03-01T22:02:12;2.90;99.90
22071;DHT22;11200;51.488;6.668;2023-03-01T22:04:39;3.00;99.90
22071;DHT22;11200;51.488;6.668;2023-03-01T22:07:05;3.20;99.90
22071;DHT22;11200;51.488;6.668;2023-03-01T22:09:31;2.80;99.90